Time;durP1;ratioP1;P1;durP2;ratioP2;P2;SDS_P1;SDS_P2;PMS_P1;PMS_P2;Temp;Humidity;BMP_temperature;BMP_pressure;BME280_temperature;BME280_humidity;BME280_pressure;Samples;Min_cycle;Max_cycle;Signal;HPM_P1;HPM_P2
2023/10/22 00:02:15;;;;;;;9.38;8.57;;;;;;;;;;5043318;28;20040;-74
2023/10/22 00:04:41;;;;;;;9.30;8.60;;;;;;;;;;5068574;28;20032;-74
2023/10/22 00:07:07;;;;;;;9.93;9.23;;;;;;;;;;5063157;28;21039;-75
2023/10/22 00:09:34;;;;;;;9.93;9.23;;;;;;;;;;5061947;28;20043;-74
2023/10/22 00:11:59;;;;;;;10.85;9.98;;;;;;;;;;5061905;28;20041;-73
2023/10/22 00:14:25;;;;;;;10.70;9.90;;;;;;;;;;5047407;28;20033;-74
2023/10/22 00:16:51;;;;;;;10.38;9.57;;;;;;;;;;5050759;28;20033;-74
2023/10/22 00:19:16;;;;;;;10.48;9.48;;;;;;;;;;5065732;28;20063;-74
2023/10/22 00:21:42;;;;;;;10.45;9.65;;;;;;;;;;5037579;28;20041;-74
2023/10/22 00:24:11;;;;;;;10.63;9.80;;;;;;;;;;5064909;28;20127;-74
2023/10/22 00:26:39;;;;;;;11.15;10.10;;;;;;;;;;5066829;28;20162;-74
2023/10/22 00:29:04;;;;;;;11.07;10.25;;;;;;;;;;5061207;28;20079;-74
2023/10/22 00:31:30;;;;;;;10.77;9.98;;;;;;;;;;5046077;28;20611;-75
2023/10/22 00:33:56;;;;;;;11.05;10.15;;;;;;;;;;5045660;28;20032;-75
2023/10/22 00:36:24;;;;;;;10.05;9.20;;;;;;;;;;5040427;28;20044;-74
2023/10/22 00:38:52;;;;;;;10.13;9.23;;;;;;;;;;5045512;28;20036;-75
2023/10/22 00:41:18;;;;;;;9.68;8.98;;;;;;;;;;5043922;28;20062;-74
2023/10/22 00:43:44;;;;;;;9.65;8.95;;;;;;;;;;5060716;28;20622;-74
2023/10/22 00:46:19;;;;;;;10.18;9.38;;;;;;;;;;5059915;28;20057;-74
2023/10/22 00:48:48;;;;;;;10.25;9.55;;;;;;;;;;5069098;28;20055;-74
2023/10/22 00:51:21;;;;;;;10.13;9.43;;;;;;;;;;5031355;28;20711;-74
2023/10/22 00:53:57;;;;;;;10.15;9.35;;;;;;;;;;5064512;28;20040;-76
2023/10/22 00:56:25;;;;;;;10.05;9.23;;;;;;;;;;5027963;28;20032;-74
2023/10/22 00:58:56;;;;;;;9.95;9.30;;;;;;;;;;5045763;28;20036;-76
2023/10/22 01:01:24;;;;;;;10.00;9.30;;;;;;;;;;5047240;28;20135;-73
2023/10/22 01:03:49;;;;;;;10.00;9.30;;;;;;;;;;5047233;28;20171;-73
2023/10/22 01:06:15;;;;;;;10.25;9.65;;;;;;;;;;5063957;28;20088;-76
2023/10/22 01:08:41;;;;;;;10.48;9.63;;;;;;;;;;5031027;28;20028;-75
2023/10/22 01:11:08;;;;;;;9.57;8.85;;;;;;;;;;5053239;28;20048;-75
2023/10/22 01:13:35;;;;;;;10.02;9.43;;;;;;;;;;5049653;28;20028;-75
2023/10/22 01:16:01;;;;;;;9.85;9.10;;;;;;;;;;5047950;28;20163;-74
2023/10/22 01:18:27;;;;;;;10.57;9.75;;;;;;;;;;5046136;28;20083;-75
2023/10/22 01:20:53;;;;;;;10.38;9.50;;;;;;;;;;5046952;28;20047;-75
2023/10/22 01:23:18;;;;;;;10.25;9.45;;;;;;;;;;5046363;28;20040;-74
2023/10/22 01:25:47;;;;;;;10.15;9.43;;;;;;;;;;5047031;28;20047;-75
2023/10/22 01:28:13;;;;;;;9.98;9.27;;;;;;;;;;5046041;28;20047;-74
2023/10/22 01:30:39;;;;;;;10.52;9.68;;;;;;;;;;5065069;28;20064;-75
2023/10/22 01:33:04;;;;;;;10.15;9.35;;;;;;;;;;5064523;28;20063;-74
2023/10/22 01:35:30;;;;;;;10.18;9.48;;;;;;;;;;5046195;28;20036;-73
2023/10/22 01:37:55;;;;;;;10.52;9.48;;;;;;;;;;5064220;28;20064;-73
2023/10/22 01:40:22;;;;;;;10.30;9.50;;;;;;;;;;5045948;28;20067;-73
2023/10/22 01:42:47;;;;;;;10.20;9.40;;;;;;;;;;5063884;28;20060;-74
2023/10/22 01:45:13;;;;;;;9.57;8.98;;;;;;;;;;5043656;28;20427;-74
2023/10/22 01:47:39;;;;;;;10.00;9.23;;;;;;;;;;5043188;28;20476;-76
2023/10/22 01:50:05;;;;;;;9.90;9.20;;;;;;;;;;5063415;28;20516;-74
2023/10/22 01:52:32;;;;;;;10.73;9.93;;;;;;;;;;5048019;28;20035;-73
2023/10/22 01:54:58;;;;;;;10.23;9.50;;;;;;;;;;5045543;28;20048;-72
2023/10/22 01:57:27;;;;;;;10.57;9.77;;;;;;;;;;5062212;28;20040;-74
2023/10/22 01:59:53;;;;;;;11.20;10.23;;;;;;;;;;5052437;28;20061;-76
2023/10/22 02:02:19;;;;;;;10.82;10.02;;;;;;;;;;5022849;28;20032;-76
2023/10/22 02:04:45;;;;;;;12.00;10.85;;;;;;;;;;5048107;28;20479;-75
2023/10/22 02:07:11;;;;;;;12.45;11.20;;;;;;;;;;5058854;28;20127;-76
2023/10/22 02:09:37;;;;;;;11.73;10.63;;;;;;;;;;5055047;28;20064;-76
2023/10/22 02:12:04;;;;;;;11.85;10.68;;;;;;;;;;5062869;28;20068;-75
2023/10/22 02:14:30;;;;;;;11.23;10.25;;;;;;;;;;5063117;28;20042;-76
2023/10/22 02:16:55;;;;;;;10.93;10.02;;;;;;;;;;5046950;28;20044;-76
2023/10/22 02:19:21;;;;;;;10.50;9.80;;;;;;;;;;5062138;28;20110;-76
2023/10/22 02:21:46;;;;;;;11.13;10.32;;;;;;;;;;5065269;28;20098;-73
2023/10/22 02:24:13;;;;;;;10.02;9.32;;;;;;;;;;5047234;28;20071;-77
2023/10/22 02:26:39;;;;;;;10.63;9.73;;;;;;;;;;5066097;28;20047;-74
2023/10/22 02:29:08;;;;;;;10.77;9.70;;;;;;;;;;5038112;28;20409;-74
2023/10/22 02:31:34;;;;;;;10.07;8.95;;;;;;;;;;5061214;28;20044;-76
2023/10/22 02:34:05;;;;;;;10.45;9.75;;;;;;;;;;5050141;28;20048;-74
2023/10/22 02:36:31;;;;;;;9.85;9.15;;;;;;;;;;5053842;28;20037;-74
2023/10/22 02:38:56;;;;;;;10.48;9.65;;;;;;;;;;5061254;28;20658;-75
2023/10/22 02:41:22;;;;;;;10.23;9.52;;;;;;;;;;5027710;28;20124;-75
2023/10/22 02:43:48;;;;;;;10.38;9.57;;;;;;;;;;5041395;28;20406;-75
2023/10/22 02:46:15;;;;;;;10.90;9.90;;;;;;;;;;5045467;28;20040;-75
2023/10/22 02:48:41;;;;;;;10.32;9.63;;;;;;;;;;5059525;28;20036;-77
2023/10/22 02:51:07;;;;;;;11.15;10.35;;;;;;;;;;5043162;28;20048;-75
2023/10/22 02:53:32;;;;;;;11.32;10.40;;;;;;;;;;5029185;28;20032;-77
2023/10/22 02:56:03;;;;;;;10.75;9.90;;;;;;;;;;5047154;28;20036;-74
2023/10/22 02:58:30;;;;;;;10.32;9.52;;;;;;;;;;5039878;28;20090;-75
2023/10/22 03:01:03;;;;;;;11.68;10.60;;;;;;;;;;5038234;28;20028;-75
2023/10/22 03:03:28;;;;;;;10.13;9.43;;;;;;;;;;5010752;28;20044;-76
2023/10/22 03:05:58;;;;;;;10.40;9.73;;;;;;;;;;5045917;28;20123;-74
2023/10/22 03:08:23;;;;;;;10.85;9.88;;;;;;;;;;5017433;28;20040;-77
2023/10/22 03:10:49;;;;;;;10.52;9.73;;;;;;;;;;5055332;28;20030;-75
2023/10/22 03:13:15;;;;;;;11.25;9.95;;;;;;;;;;5055027;28;20621;-77
2023/10/22 03:15:41;;;;;;;10.00;9.07;;;;;;;;;;5055920;28;20033;-75
2023/10/22 03:18:07;;;;;;;9.00;8.40;;;;;;;;;;5063291;28;20058;-76
2023/10/22 03:20:33;;;;;;;10.40;9.60;;;;;;;;;;5045041;28;20039;-76
2023/10/22 03:23:01;;;;;;;10.65;9.25;;;;;;;;;;5042812;28;20183;-74
2023/10/22 03:25:27;;;;;;;10.40;9.70;;;;;;;;;;5047246;28;20031;-72
2023/10/22 03:27:53;;;;;;;10.63;9.93;;;;;;;;;;5032120;28;20410;-75
2023/10/22 03:30:18;;;;;;;11.50;10.40;;;;;;;;;;5067466;28;20119;-73
2023/10/22 03:32:45;;;;;;;10.68;10.00;;;;;;;;;;5066107;28;20036;-75
2023/10/22 03:35:11;;;;;;;10.10;9.40;;;;;;;;;;5048477;28;20036;-73
2023/10/22 03:37:36;;;;;;;10.23;9.52;;;;;;;;;;5054267;28;20032;-73
2023/10/22 03:40:04;;;;;;;10.38;9.68;;;;;;;;;;5066903;28;20058;-74
2023/10/22 03:42:29;;;;;;;9.45;8.85;;;;;;;;;;5073341;28;20509;-73
2023/10/22 03:44:55;;;;;;;10.07;9.27;;;;;;;;;;5068700;28;20055;-73
2023/10/22 03:47:22;;;;;;;10.20;9.50;;;;;;;;;;5048235;28;20119;-74
2023/10/22 03:49:48;;;;;;;9.25;8.70;;;;;;;;;;5066712;28;20521;-73
2023/10/22 03:52:16;;;;;;;9.82;9.13;;;;;;;;;;5033534;28;20091;-73
2023/10/22 03:54:41;;;;;;;9.27;8.48;;;;;;;;;;5047940;28;20060;-73
2023/10/22 03:57:07;;;;;;;9.80;8.88;;;;;;;;;;5067290;28;20549;-73
2023/10/22 03:59:33;;;;;;;9.70;8.90;;;;;;;;;;5067610;28;20107;-73
2023/10/22 04:01:59;;;;;;;9.50;8.80;;;;;;;;;;5072733;28;20041;-73
2023/10/22 04:04:24;;;;;;;10.18;9.38;;;;;;;;;;5072109;28;20043;-74
2023/10/22 04:06:51;;;;;;;11.38;10.30;;;;;;;;;;5079677;28;20096;-73
2023/10/22 04:09:16;;;;;;;11.60;10.60;;;;;;;;;;5069284;28;20068;-73
2023/10/22 04:11:42;;;;;;;9.00;8.50;;;;;;;;;;5055128;28;20078;-76
2023/10/22 04:14:07;;;;;;;10.40;9.40;;;;;;;;;;5066365;28;20036;-73
2023/10/22 04:16:33;;;;;;;9.90;9.15;;;;;;;;;;5065829;28;20032;-73
2023/10/22 04:18:58;;;;;;;10.00;9.18;;;;;;;;;;5065554;28;20094;-73
2023/10/22 04:21:24;;;;;;;9.80;8.90;;;;;;;;;;5048335;28;20092;-73
2023/10/22 04:23:50;;;;;;;8.95;8.25;;;;;;;;;;5070596;28;20044;-73
2023/10/22 04:26:16;;;;;;;9.52;8.85;;;;;;;;;;5048247;28;20043;-73
2023/10/22 04:28:42;;;;;;;9.68;8.98;;;;;;;;;;5062483;28;20028;-73
2023/10/22 04:31:11;;;;;;;9.68;9.07;;;;;;;;;;5069425;28;20051;-73
2023/10/22 04:33:37;;;;;;;9.88;9.20;;;;;;;;;;5058641;28;20032;-73
2023/10/22 04:36:03;;;;;;;9.70;9.10;;;;;;;;;;5064482;28;20029;-72
2023/10/22 04:38:31;;;;;;;10.00;9.10;;;;;;;;;;5064143;28;20033;-73
2023/10/22 04:40:57;;;;;;;9.95;9.15;;;;;;;;;;5065897;28;20047;-73
2023/10/22 04:43:22;;;;;;;10.30;9.40;;;;;;;;;;5064829;28;20036;-73
2023/10/22 04:45:49;;;;;;;10.45;9.50;;;;;;;;;;5065381;28;20044;-72
2023/10/22 04:48:15;;;;;;;12.23;10.60;;;;;;;;;;5064766;28;20048;-73
2023/10/22 04:50:41;;;;;;;11.65;10.65;;;;;;;;;;5064561;28;20035;-73
2023/10/22 04:53:07;;;;;;;11.48;10.35;;;;;;;;;;5064656;28;20028;-73
2023/10/22 04:55:33;;;;;;;11.50;10.40;;;;;;;;;;5064404;28;20036;-74
2023/10/22 04:58:00;;;;;;;10.50;9.73;;;;;;;;;;5064403;28;20465;-73
2023/10/22 05:00:26;;;;;;;10.80;9.80;;;;;;;;;;5063823;28;20695;-73
2023/10/22 05:02:52;;;;;;;10.60;9.75;;;;;;;;;;5064696;28;20046;-74
2023/10/22 05:05:19;;;;;;;10.23;9.50;;;;;;;;;;5029922;28;20032;-73
2023/10/22 05:07:45;;;;;;;10.68;9.80;;;;;;;;;;5064505;28;20051;-73
2023/10/22 05:10:11;;;;;;;11.15;10.02;;;;;;;;;;5047365;28;20040;-73
2023/10/22 05:12:37;;;;;;;9.65;8.95;;;;;;;;;;5063907;28;20037;-73
2023/10/22 05:15:03;;;;;;;9.77;9.07;;;;;;;;;;5064514;28;20047;-73
2023/10/22 05:17:29;;;;;;;9.70;9.00;;;;;;;;;;5063016;28;20159;-74
2023/10/22 05:19:55;;;;;;;9.85;9.07;;;;;;;;;;5063166;28;20139;-74
2023/10/22 05:22:20;;;;;;;9.60;8.90;;;;;;;;;;5045551;28;20097;-73
2023/10/22 05:24:48;;;;;;;10.95;8.70;;;;;;;;;;5064283;28;20024;-72
2023/10/22 05:27:15;;;;;;;10.23;9.25;;;;;;;;;;5046651;28;20115;-72
2023/10/22 05:29:42;;;;;;;10.90;9.15;;;;;;;;;;5057183;28;20087;-76
2023/10/22 05:32:08;;;;;;;11.63;9.27;;;;;;;;;;5061041;28;20040;-73
2023/10/22 05:34:33;;;;;;;10.20;9.23;;;;;;;;;;5062489;28;20028;-74
2023/10/22 05:36:59;;;;;;;9.88;9.07;;;;;;;;;;5065207;28;20104;-75
2023/10/22 05:39:25;;;;;;;10.40;9.38;;;;;;;;;;5062919;28;20094;-76
2023/10/22 05:41:51;;;;;;;9.80;8.90;;;;;;;;;;5064051;28;20036;-74
2023/10/22 05:44:18;;;;;;;9.80;9.20;;;;;;;;;;5063834;28;20044;-74
2023/10/22 05:46:44;;;;;;;9.88;9.07;;;;;;;;;;5045954;28;20067;-75
2023/10/22 05:49:11;;;;;;;9.55;8.95;;;;;;;;;;5062720;28;20064;-75
2023/10/22 05:51:38;;;;;;;10.68;9.30;;;;;;;;;;5062360;28;20576;-75
2023/10/22 05:54:04;;;;;;;10.40;9.50;;;;;;;;;;5052643;28;20095;-74
2023/10/22 05:56:30;;;;;;;9.90;9.00;;;;;;;;;;5044254;28;20043;-75
2023/10/22 05:58:56;;;;;;;9.15;8.32;;;;;;;;;;5059771;28;20068;-73
2023/10/22 06:01:22;;;;;;;10.60;9.70;;;;;;;;;;5062805;28;20074;-75
2023/10/22 06:03:48;;;;;;;9.50;8.70;;;;;;;;;;5064011;28;20068;-74
2023/10/22 06:06:20;;;;;;;10.00;9.00;;;;;;;;;;5063771;28;20036;-75
2023/10/22 06:08:46;;;;;;;10.10;9.40;;;;;;;;;;5065504;28;20035;-74
2023/10/22 06:11:12;;;;;;;10.18;9.25;;;;;;;;;;5046573;28;20069;-75
2023/10/22 06:13:38;;;;;;;9.88;8.95;;;;;;;;;;5062939;28;20056;-76
2023/10/22 06:16:04;;;;;;;9.77;8.93;;;;;;;;;;5064413;28;20098;-74
2023/10/22 06:18:30;;;;;;;9.80;8.98;;;;;;;;;;5063632;28;20037;-74
2023/10/22 06:20:55;;;;;;;11.32;9.70;;;;;;;;;;5064624;28;20131;-73
2023/10/22 06:23:21;;;;;;;11.90;9.30;;;;;;;;;;5063578;28;20115;-74
2023/10/22 06:25:47;;;;;;;9.57;8.90;;;;;;;;;;5045611;28;20032;-73
2023/10/22 06:28:13;;;;;;;9.52;8.93;;;;;;;;;;5045918;28;20047;-73
2023/10/22 06:30:40;;;;;;;9.50;8.60;;;;;;;;;;5045624;28;20032;-74
2023/10/22 06:33:06;;;;;;;9.73;9.02;;;;;;;;;;5047999;28;20075;-75
2023/10/22 06:35:32;;;;;;;10.35;9.48;;;;;;;;;;5072927;28;20079;-74
2023/10/22 06:37:58;;;;;;;9.90;9.20;;;;;;;;;;5066873;28;20044;-73
2023/10/22 06:40:23;;;;;;;10.20;9.27;;;;;;;;;;5065923;28;20033;-75
2023/10/22 06:42:50;;;;;;;10.48;9.43;;;;;;;;;;5048135;28;20037;-74
2023/10/22 06:45:17;;;;;;;10.95;9.20;;;;;;;;;;5048726;28;20074;-74
2023/10/22 06:47:43;;;;;;;10.98;9.57;;;;;;;;;;5064182;28;20033;-75
2023/10/22 06:50:11;;;;;;;11.70;10.50;;;;;;;;;;5062482;28;20037;-74
2023/10/22 06:52:38;;;;;;;10.18;9.48;;;;;;;;;;5068047;28;20038;-73
2023/10/22 06:55:05;;;;;;;10.20;9.50;;;;;;;;;;5067204;28;20049;-73
2023/10/22 06:57:31;;;;;;;10.13;9.32;;;;;;;;;;5040532;28;20569;-74
2023/10/22 06:59:57;;;;;;;9.98;9.10;;;;;;;;;;5071445;28;20044;-77
2023/10/22 07:02:24;;;;;;;10.05;9.27;;;;;;;;;;5066874;28;20043;-73
2023/10/22 07:04:56;;;;;;;9.85;8.98;;;;;;;;;;5050714;28;20033;-73
2023/10/22 07:07:23;;;;;;;10.13;9.23;;;;;;;;;;5048056;28;20041;-73
2023/10/22 07:09:49;;;;;;;10.20;9.20;;;;;;;;;;5065885;28;20122;-75
2023/10/22 07:12:16;;;;;;;10.43;9.50;;;;;;;;;;5066233;28;20060;-77
2023/10/22 07:14:42;;;;;;;9.75;8.95;;;;;;;;;;5047835;28;20048;-74
2023/10/22 07:17:08;;;;;;;9.90;8.93;;;;;;;;;;5070939;28;20040;-74
2023/10/22 07:19:34;;;;;;;9.35;8.52;;;;;;;;;;5064995;28;20041;-76
2023/10/22 07:22:00;;;;;;;9.00;8.32;;;;;;;;;;5071612;28;20405;-74
2023/10/22 07:24:26;;;;;;;8.77;8.18;;;;;;;;;;5065957;28;20048;-77
2023/10/22 07:26:52;;;;;;;8.57;7.85;;;;;;;;;;5067283;28;20401;-74
2023/10/22 07:29:17;;;;;;;8.75;8.00;;;;;;;;;;5047582;28;20119;-74
2023/10/22 07:31:43;;;;;;;8.52;7.90;;;;;;;;;;5041147;28;20060;-74
2023/10/22 07:34:10;;;;;;;8.70;8.10;;;;;;;;;;5065390;28;20039;-75
2023/10/22 07:36:35;;;;;;;8.25;7.65;;;;;;;;;;5052625;28;20053;-74
2023/10/22 07:39:01;;;;;;;8.80;7.90;;;;;;;;;;5054576;28;20099;-74
2023/10/22 07:41:27;;;;;;;9.60;8.20;;;;;;;;;;5065050;28;20033;-77
2023/10/22 07:43:53;;;;;;;8.82;8.02;;;;;;;;;;5065337;28;20036;-74
2023/10/22 07:46:19;;;;;;;9.18;8.18;;;;;;;;;;5065223;28;20032;-74
2023/10/22 07:48:45;;;;;;;8.43;7.72;;;;;;;;;;5049986;28;20024;-74
2023/10/22 07:51:15;;;;;;;8.50;8.00;;;;;;;;;;5049524;28;20028;-74
2023/10/22 07:53:42;;;;;;;8.35;7.75;;;;;;;;;;5072959;28;20037;-74
2023/10/22 07:56:09;;;;;;;8.57;7.88;;;;;;;;;;5050044;28;20094;-75
2023/10/22 07:58:36;;;;;;;7.90;7.40;;;;;;;;;;5060850;28;20047;-76
2023/10/22 08:01:06;;;;;;;8.00;7.40;;;;;;;;;;5057892;28;20032;-74
2023/10/22 08:03:32;;;;;;;7.63;7.05;;;;;;;;;;5059316;28;20107;-74
2023/10/22 08:05:59;;;;;;;8.70;7.18;;;;;;;;;;5026880;28;20060;-75
2023/10/22 08:08:25;;;;;;;7.75;7.15;;;;;;;;;;5056721;28;20036;-75
2023/10/22 08:10:50;;;;;;;7.80;7.20;;;;;;;;;;5059651;28;20033;-74
2023/10/22 08:13:19;;;;;;;7.88;7.28;;;;;;;;;;5060289;28;20036;-74
2023/10/22 08:15:46;;;;;;;7.90;7.37;;;;;;;;;;5060034;28;20476;-74
2023/10/22 08:18:11;;;;;;;7.35;6.80;;;;;;;;;;5060528;28;20344;-74
2023/10/22 08:20:37;;;;;;;7.72;7.22;;;;;;;;;;5059658;28;20041;-75
2023/10/22 08:23:02;;;;;;;7.93;7.32;;;;;;;;;;5066537;28;20038;-74
2023/10/22 08:25:28;;;;;;;8.02;7.35;;;;;;;;;;5062886;28;20051;-74
2023/10/22 08:27:55;;;;;;;7.30;6.90;;;;;;;;;;5026705;28;20072;-74
2023/10/22 08:30:21;;;;;;;7.60;6.90;;;;;;;;;;5046120;28;20051;-75
2023/10/22 08:32:47;;;;;;;8.40;7.78;;;;;;;;;;5060847;28;20036;-75
2023/10/22 08:35:13;;;;;;;8.07;7.45;;;;;;;;;;5044658;28;20028;-74
2023/10/22 08:37:39;;;;;;;7.97;7.28;;;;;;;;;;5067014;28;20083;-76
2023/10/22 08:40:08;;;;;;;8.15;7.38;;;;;;;;;;5069529;28;20044;-76
2023/10/22 08:42:35;;;;;;;7.53;6.93;;;;;;;;;;5059043;28;20037;-75
2023/10/22 08:45:05;;;;;;;8.10;7.30;;;;;;;;;;5072260;28;20290;-76
2023/10/22 08:47:31;;;;;;;7.65;7.05;;;;;;;;;;5070758;28;20032;-78
2023/10/22 08:49:58;;;;;;;7.93;7.13;;;;;;;;;;5062786;28;20115;-76
2023/10/22 08:52:24;;;;;;;8.32;7.53;;;;;;;;;;5046049;28;20036;-75
2023/10/22 08:54:51;;;;;;;9.02;8.23;;;;;;;;;;5062966;28;20198;-75
2023/10/22 08:57:20;;;;;;;8.80;8.00;;;;;;;;;;5063234;28;20119;-77
2023/10/22 08:59:47;;;;;;;7.95;7.35;;;;;;;;;;5062334;28;20032;-74
2023/10/22 09:02:15;;;;;;;8.70;7.30;;;;;;;;;;5044815;28;20036;-76
2023/10/22 09:04:41;;;;;;;8.00;7.30;;;;;;;;;;5061330;28;20036;-75
2023/10/22 09:07:07;;;;;;;8.07;7.20;;;;;;;;;;5046940;28;20113;-76
2023/10/22 09:09:35;;;;;;;8.18;7.50;;;;;;;;;;5044955;28;20511;-76
2023/10/22 09:12:02;;;;;;;8.70;7.18;;;;;;;;;;5061406;28;20036;-77
2023/10/22 09:14:28;;;;;;;8.00;7.32;;;;;;;;;;5068425;28;20757;-75
2023/10/22 09:16:54;;;;;;;7.63;7.03;;;;;;;;;;5062025;28;20115;-77
2023/10/22 09:19:37;;;;;;;7.40;7.00;;;;;;;;;;5042517;28;20119;-76
2023/10/22 09:22:05;;;;;;;8.80;7.60;;;;;;;;;;5050841;28;21358;-77
2023/10/22 09:24:49;;;;;;;7.97;7.28;;;;;;;;;;5033196;28;20082;-75
2023/10/22 09:27:28;;;;;;;8.48;7.38;;;;;;;;;;5061337;28;20104;-77
2023/10/22 09:30:00;;;;;;;;;;;;;;;;;;5018759;28;20104;-74
2023/10/22 09:32:31;;;;;;;7.40;6.80;;;;;;;;;;5067309;28;19927;-75
2023/10/22 09:35:14;;;;;;;7.93;7.20;;;;;;;;;;5051779;28;20063;-76
2023/10/22 09:37:51;;;;;;;9.52;6.85;;;;;;;;;;5039312;28;20040;-77
2023/10/22 09:40:22;;;;;;;8.15;6.85;;;;;;;;;;5037192;28;20505;-74
2023/10/22 09:42:51;;;;;;;7.25;6.55;;;;;;;;;;5060688;28;20037;-76
2023/10/22 09:45:18;;;;;;;7.60;7.00;;;;;;;;;;5052741;28;20036;-71
2023/10/22 09:47:48;;;;;;;8.48;7.00;;;;;;;;;;5051526;28;20043;-75
2023/10/22 09:50:18;;;;;;;7.72;7.15;;;;;;;;;;5054913;28;20111;-73
2023/10/22 09:52:46;;;;;;;8.48;7.15;;;;;;;;;;5051583;28;20040;-71
2023/10/22 09:55:15;;;;;;;7.53;6.80;;;;;;;;;;5032181;28;20045;-71
2023/10/22 09:57:45;;;;;;;8.45;7.20;;;;;;;;;;5048425;28;20147;-68
2023/10/22 10:00:15;;;;;;;7.35;6.75;;;;;;;;;;5056335;28;20088;-68
2023/10/22 10:02:42;;;;;;;8.65;7.43;;;;;;;;;;5054490;28;20532;-70
2023/10/22 10:05:13;;;;;;;7.65;6.95;;;;;;;;;;5054902;28;20685;-72
2023/10/22 10:07:39;;;;;;;7.90;7.20;;;;;;;;;;5068731;28;20128;-72
2023/10/22 10:10:05;;;;;;;9.38;8.60;;;;;;;;;;5046525;28;20120;-72
2023/10/22 10:12:38;;;;;;;9.05;8.13;;;;;;;;;;5052209;28;20106;-72
2023/10/22 10:15:04;;;;;;;8.90;8.10;;;;;;;;;;5049681;28;20060;-71
2023/10/22 10:17:31;;;;;;;10.38;7.70;;;;;;;;;;5032950;28;20551;-72
2023/10/22 10:20:26;;;;;;;9.35;8.45;;;;;;;;;;5046901;28;20731;-73
2023/10/22 10:23:18;;;;;;;10.85;7.60;;;;;;;;;;5015328;28;20161;-72
2023/10/22 10:25:48;;;;;;;8.40;7.70;;;;;;;;;;5045012;28;20052;-72
2023/10/22 10:28:42;;;;;;;9.93;8.53;;;;;;;;;;4908954;28;10001314;-73
2023/10/22 10:31:53;;;;;;;9.00;8.10;;;;;;;;;;4501610;28;10001055;-72
2023/10/22 10:34:40;;;;;;;8.43;7.75;;;;;;;;;;5003030;28;20050;-74
2023/10/22 10:37:20;;;;;;;7.68;7.13;;;;;;;;;;4987070;28;20133;-71
2023/10/22 10:39:47;;;;;;;8.13;7.32;;;;;;;;;;4127440;28;10000580;-70
2023/10/22 10:42:36;;;;;;;8.43;7.38;;;;;;;;;;4135540;22;10000853;-70
2023/10/22 10:45:04;;;;;;;8.23;7.43;;;;;;;;;;4998874;28;20128;-69
2023/10/22 10:47:41;;;;;;;8.30;7.50;;;;;;;;;;4966590;28;20046;-69
2023/10/22 10:50:10;;;;;;;8.30;7.55;;;;;;;;;;4097911;28;10000800;-71
2023/10/22 10:52:42;;;;;;;7.93;7.13;;;;;;;;;;4995917;28;20048;-70
2023/10/22 10:55:29;;;;;;;7.88;7.20;;;;;;;;;;4999927;28;20046;-71
2023/10/22 10:57:55;;;;;;;11.27;7.13;;;;;;;;;;4997272;28;20045;-71
2023/10/22 11:00:30;;;;;;;8.10;7.55;;;;;;;;;;4120308;28;10000824;-71
2023/10/22 11:03:04;;;;;;;7.75;7.10;;;;;;;;;;4998486;28;20127;-71
2023/10/22 11:05:42;;;;;;;7.20;6.70;;;;;;;;;;4975827;28;20116;-71
2023/10/22 11:08:22;;;;;;;8.73;7.30;;;;;;;;;;4977714;28;20162;-72
2023/10/22 11:10:48;;;;;;;7.97;7.32;;;;;;;;;;4979604;28;20026;-71
2023/10/22 11:13:14;;;;;;;7.90;7.30;;;;;;;;;;4999932;28;20042;-71
2023/10/22 11:15:40;;;;;;;7.68;6.97;;;;;;;;;;4981164;28;20038;-71
2023/10/22 11:18:11;;;;;;;10.23;8.48;;;;;;;;;;4964683;28;20255;-71
2023/10/22 11:20:38;;;;;;;7.80;7.20;;;;;;;;;;4997745;28;20061;-71
2023/10/22 11:23:16;;;;;;;8.00;7.30;;;;;;;;;;4985044;28;20105;-70
2023/10/22 11:25:42;;;;;;;7.57;6.97;;;;;;;;;;4996085;28;20682;-70
2023/10/22 11:28:12;;;;;;;8.65;7.00;;;;;;;;;;4780989;28;10001212;-70
2023/10/22 11:30:40;;;;;;;7.70;7.10;;;;;;;;;;4451488;28;10001225;-71
2023/10/22 11:33:27;;;;;;;7.80;7.10;;;;;;;;;;4998409;28;20392;-71
2023/10/22 11:35:56;;;;;;;7.95;7.25;;;;;;;;;;4981070;28;20101;-69
2023/10/22 11:38:22;;;;;;;7.43;6.82;;;;;;;;;;4130278;28;10000967;-71
2023/10/22 11:40:54;;;;;;;7.45;6.78;;;;;;;;;;4980045;28;20060;-70
2023/10/22 11:43:23;;;;;;;7.38;6.78;;;;;;;;;;4999414;28;20038;-71
2023/10/22 11:45:57;;;;;;;;;;;;;;;;;;5001143;28;20885;-69
2023/10/22 11:48:25;;;;;;;7.90;7.07;;;;;;;;;;4981742;28;19942;-69
2023/10/22 11:51:01;;;;;;;7.88;7.32;;;;;;;;;;5002745;28;20045;-72
2023/10/22 11:53:47;;;;;;;7.78;7.00;;;;;;;;;;4999031;28;20053;-70
2023/10/22 11:56:16;;;;;;;8.07;7.38;;;;;;;;;;4746503;28;10001249;-70
2023/10/22 11:58:51;;;;;;;8.13;7.28;;;;;;;;;;4483014;28;10000642;-70
2023/10/22 12:01:16;;;;;;;7.85;6.93;;;;;;;;;;5005664;28;20470;-70
2023/10/22 12:03:42;;;;;;;8.57;7.78;;;;;;;;;;4980791;28;20164;-70
2023/10/22 12:06:08;;;;;;;10.98;7.50;;;;;;;;;;4991230;28;20087;-70
2023/10/22 12:08:34;;;;;;;7.90;7.32;;;;;;;;;;4974876;28;20038;-70
2023/10/22 12:10:59;;;;;;;7.90;7.20;;;;;;;;;;4996792;28;20128;-70
2023/10/22 12:13:25;;;;;;;8.20;7.40;;;;;;;;;;4962854;28;20215;-70
2023/10/22 12:15:50;;;;;;;11.80;7.70;;;;;;;;;;4982386;28;20109;-70
2023/10/22 12:18:16;;;;;;;8.85;7.95;;;;;;;;;;4977096;28;20044;-71
2023/10/22 12:20:42;;;;;;;8.30;7.60;;;;;;;;;;4982204;28;20029;-70
2023/10/22 12:23:11;;;;;;;7.95;7.40;;;;;;;;;;4984424;28;20479;-71
2023/10/22 12:25:36;;;;;;;9.00;8.02;;;;;;;;;;4995147;28;20036;-70
2023/10/22 12:28:02;;;;;;;8.15;7.55;;;;;;;;;;4962809;28;20128;-70
2023/10/22 12:30:27;;;;;;;7.97;7.45;;;;;;;;;;5000298;28;20037;-69
2023/10/22 12:32:53;;;;;;;8.90;8.20;;;;;;;;;;4983291;28;20045;-70
2023/10/22 12:35:19;;;;;;;9.27;8.43;;;;;;;;;;5001142;28;20042;-70
2023/10/22 12:37:44;;;;;;;8.80;8.10;;;;;;;;;;4966955;28;20041;-70
2023/10/22 12:40:10;;;;;;;8.40;7.70;;;;;;;;;;4999106;28;20037;-70
2023/10/22 12:42:41;;;;;;;8.65;7.82;;;;;;;;;;5000292;28;20034;-70
2023/10/22 12:45:10;;;;;;;8.98;8.20;;;;;;;;;;4999838;28;20034;-70
2023/10/22 12:47:36;;;;;;;8.40;7.70;;;;;;;;;;4994896;28;20110;-70
2023/10/22 12:50:04;;;;;;;8.05;7.40;;;;;;;;;;5000532;28;20125;-71
2023/10/22 12:52:29;;;;;;;8.35;7.65;;;;;;;;;;4981575;28;20454;-70
2023/10/22 12:54:55;;;;;;;8.30;7.57;;;;;;;;;;4982398;28;20101;-70
2023/10/22 12:57:21;;;;;;;7.50;7.00;;;;;;;;;;4990010;28;20505;-70
2023/10/22 12:59:47;;;;;;;7.50;6.80;;;;;;;;;;4998496;28;20465;-69
2023/10/22 13:02:13;;;;;;;9.35;7.43;;;;;;;;;;5000969;28;20041;-70
2023/10/22 13:04:40;;;;;;;7.72;6.78;;;;;;;;;;4999904;28;20034;-70
2023/10/22 13:07:06;;;;;;;8.07;7.43;;;;;;;;;;4999980;28;20026;-71
2023/10/22 13:09:32;;;;;;;7.30;6.80;;;;;;;;;;5003068;28;20034;-70
2023/10/22 13:11:57;;;;;;;7.65;6.95;;;;;;;;;;5001836;28;20498;-70
2023/10/22 13:14:23;;;;;;;9.57;7.80;;;;;;;;;;4968011;28;20042;-70
2023/10/22 13:16:48;;;;;;;7.43;6.88;;;;;;;;;;4978922;28;20042;-69
2023/10/22 13:19:14;;;;;;;8.45;7.60;;;;;;;;;;4983800;28;20058;-70
2023/10/22 13:21:40;;;;;;;8.52;7.72;;;;;;;;;;4996160;28;20042;-70
2023/10/22 13:24:06;;;;;;;12.25;7.43;;;;;;;;;;4966541;28;20041;-71
2023/10/22 13:26:32;;;;;;;8.10;7.40;;;;;;;;;;4982029;28;20095;-71
2023/10/22 13:29:06;;;;;;;8.45;7.63;;;;;;;;;;4989813;28;20046;-71
2023/10/22 13:31:35;;;;;;;8.18;7.50;;;;;;;;;;4998876;28;20039;-71
2023/10/22 13:34:01;;;;;;;8.15;7.30;;;;;;;;;;4122442;28;10001045;-71
2023/10/22 13:36:26;;;;;;;7.80;7.30;;;;;;;;;;4976445;28;20128;-71
2023/10/22 13:38:52;;;;;;;8.18;7.43;;;;;;;;;;4996679;28;20598;-71
2023/10/22 13:41:18;;;;;;;9.80;8.10;;;;;;;;;;4986401;28;20041;-71
2023/10/22 13:43:43;;;;;;;8.20;7.53;;;;;;;;;;4971365;28;20045;-70
2023/10/22 13:46:09;;;;;;;9.65;8.70;;;;;;;;;;4994703;28;20033;-73
2023/10/22 13:48:35;;;;;;;8.48;7.68;;;;;;;;;;5004018;28;20035;-71
2023/10/22 13:51:04;;;;;;;8.43;7.65;;;;;;;;;;5004921;28;20042;-71
2023/10/22 13:53:30;;;;;;;8.60;7.85;;;;;;;;;;5007955;28;20084;-71
2023/10/22 13:55:57;;;;;;;8.23;7.43;;;;;;;;;;4989375;28;20041;-71
2023/10/22 13:58:23;;;;;;;9.00;8.13;;;;;;;;;;4986760;28;20588;-70
2023/10/22 14:00:48;;;;;;;8.95;8.27;;;;;;;;;;4983530;28;20485;-72
2023/10/22 14:03:14;;;;;;;7.78;7.20;;;;;;;;;;4989424;28;20038;-71
2023/10/22 14:05:48;;;;;;;9.18;8.27;;;;;;;;;;4997089;28;20033;-70
2023/10/22 14:08:13;;;;;;;11.50;8.00;;;;;;;;;;5009525;28;20149;-72
2023/10/22 14:10:42;;;;;;;8.52;7.78;;;;;;;;;;4996997;28;20112;-72
2023/10/22 14:13:08;;;;;;;8.05;7.45;;;;;;;;;;4984990;28;20064;-72
2023/10/22 14:15:34;;;;;;;8.00;7.40;;;;;;;;;;5004870;28;20399;-73
2023/10/22 14:17:59;;;;;;;8.85;8.15;;;;;;;;;;4989119;28;20034;-72
2023/10/22 14:20:26;;;;;;;9.82;8.93;;;;;;;;;;4991657;28;20105;-72
2023/10/22 14:22:52;;;;;;;8.77;8.13;;;;;;;;;;5009964;28;20033;-72
2023/10/22 14:25:17;;;;;;;8.82;8.13;;;;;;;;;;5009530;28;20326;-72
2023/10/22 14:27:44;;;;;;;8.23;7.53;;;;;;;;;;5011148;28;20108;-72
2023/10/22 14:30:11;;;;;;;9.40;8.50;;;;;;;;;;5000423;28;20399;-72
2023/10/22 14:32:36;;;;;;;9.27;8.48;;;;;;;;;;5009537;28;20069;-70
2023/10/22 14:35:02;;;;;;;9.38;8.35;;;;;;;;;;5013336;28;20030;-70
2023/10/22 14:37:31;;;;;;;8.60;7.90;;;;;;;;;;5008542;28;20457;-73
2023/10/22 14:39:56;;;;;;;9.27;8.48;;;;;;;;;;5003089;28;20029;-71